Time;durP1;ratioP1;P1;durP2;ratioP2;P2;SDS_P1;SDS_P2;PMS_P1;PMS_P2;Temp;Humidity;BMP_temperature;BMP_pressure;BME280_temperature;BME280_humidity;BME280_pressure;Samples;Min_cycle;Max_cycle;Signal;HPM_P1;HPM_P2
2022/09/26 00:02:22;;;;;;;7.28;5.22;;;;;;;;;;6271517;22;20127;-76
2022/09/26 00:04:49;;;;;;;7.50;5.22;;;;;;;;;;6271846;22;20074;-76
2022/09/26 00:07:17;;;;;;;11.07;5.63;;;;;;;;;;6270729;22;20094;-75
2022/09/26 00:09:51;;;;;;;7.70;5.10;;;;;;;;;;6245929;22;20094;-75
2022/09/26 00:12:25;;;;;;;9.45;4.57;;;;;;;;;;6270735;22;20095;-75
2022/09/26 00:15:06;;;;;;;5.18;3.80;;;;;;;;;;6271126;22;20119;-74
2022/09/26 00:17:34;;;;;;;7.93;4.85;;;;;;;;;;6271290;22;20292;-75
2022/09/26 00:20:08;;;;;;;8.68;4.78;;;;;;;;;;6271515;22;20103;-75
2022/09/26 00:22:35;;;;;;;9.57;4.60;;;;;;;;;;6243774;22;20139;-76
2022/09/26 00:25:02;;;;;;;11.55;4.72;;;;;;;;;;6271703;22;20046;-75
2022/09/26 00:27:35;;;;;;;7.38;4.35;;;;;;;;;;6246267;22;20024;-76
2022/09/26 00:30:03;;;;;;;7.82;5.10;;;;;;;;;;6271171;22;20126;-76
2022/09/26 00:32:38;;;;;;;10.98;4.80;;;;;;;;;;6271255;22;20102;-75
2022/09/26 00:35:05;;;;;;;;;;;;;;;;;;6272375;22;20099;-76
2022/09/26 00:37:32;;;;;;;6.43;3.80;;;;;;;;;;6244884;22;19957;-76
2022/09/26 00:40:07;;;;;;;8.93;4.03;;;;;;;;;;6247729;22;20098;-76
2022/09/26 00:42:34;;;;;;;6.30;4.13;;;;;;;;;;6272548;22;20030;-75
2022/09/26 00:45:08;;;;;;;6.50;3.67;;;;;;;;;;6271539;22;20286;-75
2022/09/26 00:47:45;;;;;;;5.68;4.07;;;;;;;;;;6270186;22;20099;-75
2022/09/26 00:50:22;;;;;;;9.02;3.83;;;;;;;;;;6270740;22;20020;-75
2022/09/26 00:53:22;;;;;;;7.70;4.22;;;;;;;;;;6269446;22;20026;-75
2022/09/26 00:55:59;;;;;;;4.50;3.80;;;;;;;;;;6196067;22;20531;-76
2022/09/26 00:58:29;;;;;;;5.70;3.75;;;;;;;;;;6244202;22;20019;-76
2022/09/26 01:01:02;;;;;;;10.18;3.70;;;;;;;;;;6243768;22;20038;-76
2022/09/26 01:03:31;;;;;;;4.72;3.38;;;;;;;;;;6270516;22;20102;-75
2022/09/26 01:05:59;;;;;;;10.95;4.20;;;;;;;;;;6269368;22;20020;-76
2022/09/26 01:08:35;;;;;;;7.00;3.20;;;;;;;;;;6242962;22;20448;-76
2022/09/26 01:11:03;;;;;;;7.45;3.58;;;;;;;;;;6271108;22;20457;-77
2022/09/26 01:13:49;;;;;;;5.70;2.90;;;;;;;;;;6269005;22;20027;-76
2022/09/26 01:16:23;;;;;;;4.13;2.42;;;;;;;;;;6270934;22;20043;-76
2022/09/26 01:18:58;;;;;;;6.07;2.45;;;;;;;;;;6269806;22;20020;-76
2022/09/26 01:21:25;;;;;;;;;;;;;;;;;;6271115;22;20098;-76
2022/09/26 01:24:17;;;;;;;2.75;2.30;;;;;;;;;;6272113;22;20398;-75
2022/09/26 01:26:51;;;;;;;3.97;2.22;;;;;;;;;;6270669;22;20034;-75
2022/09/26 01:29:27;;;;;;;4.50;2.30;;;;;;;;;;6271442;22;20520;-76
2022/09/26 01:35:10;;;;;;;5.15;2.35;;;;;;;;;;6239410;22;20336;-76
2022/09/26 01:37:52;;;;;;;2.83;2.20;;;;;;;;;;6241895;22;20024;-76
2022/09/26 01:40:35;;;;;;;2.78;2.50;;;;;;;;;;6271045;22;20103;-76
2022/09/26 01:43:06;;;;;;;4.03;2.53;;;;;;;;;;6243992;22;20027;-76
2022/09/26 01:45:43;;;;;;;5.32;2.53;;;;;;;;;;6271117;22;20353;-76
2022/09/26 01:48:15;;;;;;;4.32;2.75;;;;;;;;;;6270271;22;20103;-76
2022/09/26 01:50:54;;;;;;;5.50;2.35;;;;;;;;;;6270696;22;20024;-76
2022/09/26 01:53:24;;;;;;;7.32;3.10;;;;;;;;;;6270647;22;20394;-76
2022/09/26 01:56:04;;;;;;;2.90;2.53;;;;;;;;;;6270449;22;20023;-76
2022/09/26 01:58:34;;;;;;;5.30;2.65;;;;;;;;;;6270022;22;20481;-76
2022/09/26 02:01:09;;;;;;;5.70;2.55;;;;;;;;;;6270026;22;20055;-76
2022/09/26 02:03:39;;;;;;;6.25;2.38;;;;;;;;;;6270662;22;20023;-76
2022/09/26 02:06:12;;;;;;;4.43;1.98;;;;;;;;;;6270539;22;20127;-75
2022/09/26 02:08:48;;;;;;;5.75;2.10;;;;;;;;;;6271077;22;20027;-76
2022/09/26 02:11:17;;;;;;;3.53;2.30;;;;;;;;;;6243299;22;20686;-76
2022/09/26 02:14:12;;;;;;;11.93;2.78;;;;;;;;;;6270797;22;20015;-76
2022/09/26 02:16:50;;;;;;;6.18;2.30;;;;;;;;;;6271723;22;20114;-76
2022/09/26 02:19:19;;;;;;;3.78;2.38;;;;;;;;;;6272962;22;20023;-76
2022/09/26 02:21:53;;;;;;;4.95;2.08;;;;;;;;;;6273056;22;20424;-76
2022/09/26 02:24:20;;;;;;;;;;;;;;;;;;6271635;22;20030;-75
2022/09/26 02:26:48;;;;;;;6.13;2.40;;;;;;;;;;6272959;22;19925;-76
2022/09/26 02:29:23;;;;;;;6.55;2.30;;;;;;;;;;6273049;22;20099;-75
2022/09/26 02:31:58;;;;;;;4.78;2.30;;;;;;;;;;6271599;22;20016;-75
2022/09/26 02:34:32;;;;;;;6.78;2.28;;;;;;;;;;6272854;22;20106;-77
2022/09/26 02:37:00;;;;;;;;;;;;;;;;;;6270502;22;20016;-76
2022/09/26 02:39:34;;;;;;;5.82;2.70;;;;;;;;;;6246090;22;20276;-76
2022/09/26 02:42:05;;;;;;;2.97;2.30;;;;;;;;;;6272506;22;20066;-76
2022/09/26 02:44:48;;;;;;;3.13;2.60;;;;;;;;;;6272041;22;20023;-76
2022/09/26 02:47:30;;;;;;;3.10;2.60;;;;;;;;;;6271762;22;20268;-76
2022/09/26 02:50:17;;;;;;;3.85;2.70;;;;;;;;;;6247258;22;20118;-77
2022/09/26 02:53:00;;;;;;;5.18;2.70;;;;;;;;;;6272013;22;20026;-76
2022/09/26 02:55:52;;;;;;;6.10;2.70;;;;;;;;;;6272139;22;20023;-75
2022/09/26 02:58:34;;;;;;;4.13;2.63;;;;;;;;;;6244774;22;20469;-76
2022/09/26 03:01:12;;;;;;;3.95;2.90;;;;;;;;;;6271855;22;20098;-75
2022/09/26 03:03:53;;;;;;;6.20;2.75;;;;;;;;;;6245285;22;20019;-76
2022/09/26 03:06:29;;;;;;;6.93;3.70;;;;;;;;;;6271747;22;20118;-76
2022/09/26 03:08:58;;;;;;;6.88;3.08;;;;;;;;;;6272105;22;20022;-76
2022/09/26 03:11:32;;;;;;;6.80;3.17;;;;;;;;;;6271640;22;20034;-76
2022/09/26 03:14:07;;;;;;;7.32;3.00;;;;;;;;;;6270986;22;20038;-76
2022/09/26 03:16:43;;;;;;;7.13;2.88;;;;;;;;;;6271683;22;20106;-76
2022/09/26 03:19:15;;;;;;;5.45;3.25;;;;;;;;;;6270206;22;20531;-75
2022/09/26 03:21:48;;;;;;;6.45;3.50;;;;;;;;;;6271411;22;20030;-76
2022/09/26 03:24:16;;;;;;;8.20;3.22;;;;;;;;;;6243152;22;20027;-76
2022/09/26 03:26:43;;;;;;;6.03;3.80;;;;;;;;;;6244606;22;20030;-76
2022/09/26 03:29:18;;;;;;;6.35;3.65;;;;;;;;;;6270857;22;20020;-76
2022/09/26 03:31:49;;;;;;;9.85;3.95;;;;;;;;;;6271814;22;20051;-76
2022/09/26 03:34:22;;;;;;;7.95;3.10;;;;;;;;;;6270413;22;20050;-76
2022/09/26 03:36:50;;;;;;;8.00;4.30;;;;;;;;;;6272192;22;20026;-76
2022/09/26 03:39:17;;;;;;;7.72;2.97;;;;;;;;;;6271917;22;20020;-76
2022/09/26 03:41:50;;;;;;;3.13;2.72;;;;;;;;;;6271858;22;20070;-75
2022/09/26 03:44:18;;;;;;;4.85;3.08;;;;;;;;;;6271823;22;20030;-76
2022/09/26 03:46:52;;;;;;;5.85;3.47;;;;;;;;;;6271811;22;20779;-76
2022/09/26 03:49:19;;;;;;;9.07;3.58;;;;;;;;;;6271826;22;20098;-76
2022/09/26 03:51:46;;;;;;;7.38;3.28;;;;;;;;;;6272679;22;20090;-76
2022/09/26 03:54:21;;;;;;;5.68;2.90;;;;;;;;;;6245340;22;20455;-76
2022/09/26 03:56:48;;;;;;;;;;;;;;;;;;6270897;22;20024;-76
2022/09/26 03:59:15;;;;;;;4.50;3.20;;;;;;;;;;6270092;22;19915;-76
2022/09/26 04:01:49;;;;;;;10.18;3.50;;;;;;;;;;6271803;22;20400;-76
2022/09/26 04:04:16;;;;;;;5.72;3.17;;;;;;;;;;6270318;22;20727;-76
2022/09/26 04:06:50;;;;;;;5.13;3.00;;;;;;;;;;6273068;22;20030;-75
2022/09/26 04:09:18;;;;;;;4.25;2.95;;;;;;;;;;6272184;22;20098;-76
2022/09/26 04:12:00;;;;;;;11.02;3.33;;;;;;;;;;6272590;22;20024;-76
2022/09/26 04:14:42;;;;;;;7.50;3.20;;;;;;;;;;6272541;22;20023;-76
2022/09/26 04:17:09;;;;;;;5.85;3.50;;;;;;;;;;6272477;22;20023;-76
2022/09/26 04:19:43;;;;;;;4.63;3.00;;;;;;;;;;6271334;22;20028;-76
2022/09/26 04:22:10;;;;;;;5.15;2.88;;;;;;;;;;6272718;22;20433;-76
2022/09/26 04:24:38;;;;;;;7.53;3.20;;;;;;;;;;6270886;22;20122;-76
2022/09/26 04:27:12;;;;;;;5.45;2.97;;;;;;;;;;6269751;22;20577;-77
2022/09/26 04:29:39;;;;;;;3.75;2.60;;;;;;;;;;6270360;22;20457;-76
2022/09/26 04:32:13;;;;;;;4.90;2.97;;;;;;;;;;6272407;22;20026;-76
2022/09/26 04:34:40;;;;;;;5.00;3.03;;;;;;;;;;6244431;22;20020;-76
2022/09/26 04:37:08;;;;;;;8.45;2.95;;;;;;;;;;6271184;22;20360;-77
2022/09/26 04:39:43;;;;;;;4.65;2.38;;;;;;;;;;6271270;22;20102;-76
2022/09/26 04:42:10;;;;;;;4.85;2.80;;;;;;;;;;6244728;22;20095;-75
2022/09/26 04:44:44;;;;;;;5.40;2.30;;;;;;;;;;6266686;22;20028;-77
2022/09/26 04:47:11;;;;;;;4.03;2.40;;;;;;;;;;6268217;22;20020;-75
2022/09/26 04:49:38;;;;;;;9.73;2.95;;;;;;;;;;6268961;22;20046;-76
2022/09/26 04:52:12;;;;;;;3.85;2.80;;;;;;;;;;6243399;22;20016;-76
2022/09/26 04:54:39;;;;;;;5.68;3.00;;;;;;;;;;6242490;22;20098;-76
2022/09/26 04:57:07;;;;;;;7.25;2.80;;;;;;;;;;6270335;22;20026;-76
2022/09/26 04:59:46;;;;;;;8.73;2.65;;;;;;;;;;6271131;22;20542;-76
2022/09/26 05:02:13;;;;;;;8.52;3.05;;;;;;;;;;6271275;22;20103;-76
2022/09/26 05:04:47;;;;;;;7.15;2.85;;;;;;;;;;6270379;22;20324;-76
2022/09/26 05:07:15;;;;;;;6.78;3.00;;;;;;;;;;6271587;22;20090;-76
2022/09/26 05:09:42;;;;;;;6.22;3.20;;;;;;;;;;6271881;22;20420;-75
2022/09/26 05:12:22;;;;;;;4.18;2.42;;;;;;;;;;6269844;22;20019;-75
2022/09/26 05:14:56;;;;;;;8.52;2.88;;;;;;;;;;6244367;22;20095;-76
2022/09/26 05:17:30;;;;;;;6.82;2.60;;;;;;;;;;6270824;22;20029;-75
2022/09/26 05:19:59;;;;;;;3.90;2.42;;;;;;;;;;6243669;22;20426;-76
2022/09/26 05:22:29;;;;;;;4.82;2.35;;;;;;;;;;6270721;22;20028;-76
2022/09/26 05:27:50;;;;;;;6.82;2.65;;;;;;;;;;6271801;22;20420;-75
2022/09/26 05:30:30;;;;;;;7.28;2.72;;;;;;;;;;6271546;22;20034;-75
2022/09/26 05:32:57;;;;;;;5.25;2.75;;;;;;;;;;6270432;22;20049;-75
2022/09/26 05:35:33;;;;;;;11.80;3.00;;;;;;;;;;6271734;22;20020;-76
2022/09/26 05:38:01;;;;;;;10.43;2.88;;;;;;;;;;6271334;22;20043;-75
2022/09/26 05:43:21;;;;;;;5.88;2.33;;;;;;;;;;6271893;22;20039;-76
2022/09/26 05:45:49;;;;;;;;;;;;;;;;;;6245258;22;20016;-76
2022/09/26 05:48:16;;;;;;;7.65;2.50;;;;;;;;;;6245198;22;19987;-75
2022/09/26 05:50:50;;;;;;;3.65;2.35;;;;;;;;;;6272704;22;20123;-75
2022/09/26 05:53:18;;;;;;;8.02;3.05;;;;;;;;;;6273178;22;20074;-76
2022/09/26 05:55:52;;;;;;;4.60;2.35;;;;;;;;;;6248068;22;20883;-76
2022/09/26 05:58:19;;;;;;;6.80;3.20;;;;;;;;;;6274167;22;20058;-76
2022/09/26 06:00:46;;;;;;;8.30;3.22;;;;;;;;;;6246048;22;20112;-75
2022/09/26 06:03:21;;;;;;;5.28;2.75;;;;;;;;;;6274511;22;20094;-76
2022/09/26 06:05:49;;;;;;;6.97;2.83;;;;;;;;;;6273477;22;20028;-76
2022/09/26 06:08:23;;;;;;;7.65;2.75;;;;;;;;;;6273294;22;20119;-75
2022/09/26 06:10:50;;;;;;;9.60;2.97;;;;;;;;;;6247200;22;20381;-76
2022/09/26 06:13:20;;;;;;;7.40;2.63;;;;;;;;;;6272867;22;20338;-76
2022/09/26 06:15:56;;;;;;;6.53;2.95;;;;;;;;;;6274555;22;20508;-76
2022/09/26 06:18:23;;;;;;;7.28;3.28;;;;;;;;;;6273072;22;20062;-76
2022/09/26 06:20:50;;;;;;;7.53;3.60;;;;;;;;;;6273802;22;20020;-76
2022/09/26 06:23:24;;;;;;;6.20;3.35;;;;;;;;;;6271831;22;20055;-76
2022/09/26 06:25:51;;;;;;;7.95;3.97;;;;;;;;;;6270961;22;20023;-76
2022/09/26 06:28:25;;;;;;;8.00;3.33;;;;;;;;;;6246928;22;20046;-76
2022/09/26 06:30:52;;;;;;;;;;;;;;;;;;6246456;22;20020;-76
2022/09/26 06:33:19;;;;;;;8.45;2.75;;;;;;;;;;6272640;22;20002;-76
2022/09/26 06:35:59;;;;;;;5.63;2.92;;;;;;;;;;6273017;22;20035;-76
2022/09/26 06:38:28;;;;;;;7.38;2.88;;;;;;;;;;6245727;22;20032;-76
2022/09/26 06:41:02;;;;;;;9.88;3.00;;;;;;;;;;6272026;22;20019;-75
2022/09/26 06:43:30;;;;;;;5.30;2.72;;;;;;;;;;6271434;22;20095;-76
2022/09/26 06:45:57;;;;;;;4.97;2.58;;;;;;;;;;6272924;22;20024;-76
2022/09/26 06:48:31;;;;;;;11.75;2.92;;;;;;;;;;6247460;22;20023;-76
2022/09/26 06:50:59;;;;;;;5.40;2.47;;;;;;;;;;6272844;22;20098;-75
2022/09/26 06:53:33;;;;;;;4.22;2.45;;;;;;;;;;6272422;22;20098;-76
2022/09/26 06:56:01;;;;;;;9.90;2.78;;;;;;;;;;6271907;22;20029;-76
2022/09/26 06:58:28;;;;;;;6.25;3.08;;;;;;;;;;6273684;22;20026;-76
2022/09/26 07:01:03;;;;;;;5.93;2.65;;;;;;;;;;6272557;22;20103;-76
2022/09/26 07:03:30;;;;;;;;;;;;;;;;;;6272598;22;20094;-76
2022/09/26 07:05:57;;;;;;;4.32;2.08;;;;;;;;;;6272381;22;20429;-75
2022/09/26 07:08:32;;;;;;;12.23;2.60;;;;;;;;;;6273297;22;20024;-76
2022/09/26 07:11:19;;;;;;;5.35;3.03;;;;;;;;;;6250592;22;20021;-75
2022/09/26 07:14:19;;;;;;;3.67;2.05;;;;;;;;;;6272620;22;20034;-76
2022/09/26 07:16:53;;;;;;;7.43;2.40;;;;;;;;;;6271805;22;20027;-75
2022/09/26 07:19:27;;;;;;;4.38;2.35;;;;;;;;;;6272753;22;20419;-76
2022/09/26 07:21:55;;;;;;;5.60;2.35;;;;;;;;;;6272463;22;20023;-75
2022/09/26 07:24:22;;;;;;;4.13;2.10;;;;;;;;;;6271674;22;20015;-76
2022/09/26 07:26:56;;;;;;;7.75;2.45;;;;;;;;;;6270927;22;20020;-76
2022/09/26 07:29:23;;;;;;;5.22;1.67;;;;;;;;;;6245290;22;20119;-76
2022/09/26 07:31:58;;;;;;;6.68;2.55;;;;;;;;;;6271563;22;20028;-75
2022/09/26 07:34:25;;;;;;;5.40;2.20;;;;;;;;;;6244476;22;20091;-76
2022/09/26 07:36:53;;;;;;;4.78;2.20;;;;;;;;;;6245194;22;20058;-76
2022/09/26 07:39:28;;;;;;;6.88;2.42;;;;;;;;;;6245990;22;20059;-76
2022/09/26 07:41:55;;;;;;;4.25;2.10;;;;;;;;;;6272047;22;20111;-75
2022/09/26 07:44:22;;;;;;;4.63;2.30;;;;;;;;;;6245367;22;20103;-75
2022/09/26 07:50:13;;;;;;;4.57;2.15;;;;;;;;;;6273391;22;20047;-75
2022/09/26 07:52:48;;;;;;;8.77;2.35;;;;;;;;;;6270677;22;20531;-75
2022/09/26 07:55:16;;;;;;;6.60;2.33;;;;;;;;;;6270867;22;20102;-76
2022/09/26 07:57:50;;;;;;;6.00;2.10;;;;;;;;;;6271846;22;20095;-76
2022/09/26 08:00:18;;;;;;;5.10;1.98;;;;;;;;;;6272105;22;20398;-76
2022/09/26 08:02:46;;;;;;;6.22;2.15;;;;;;;;;;6245523;22;20054;-75
2022/09/26 08:05:20;;;;;;;4.95;2.30;;;;;;;;;;6272324;22;20024;-75
2022/09/26 08:07:48;;;;;;;6.47;2.42;;;;;;;;;;6272269;22;20023;-76
2022/09/26 08:10:23;;;;;;;6.78;2.28;;;;;;;;;;6272206;22;20103;-75
2022/09/26 08:13:00;;;;;;;5.57;2.38;;;;;;;;;;6272331;22;20050;-75
2022/09/26 08:15:40;;;;;;;7.20;2.70;;;;;;;;;;6270428;22;20134;-76
2022/09/26 08:18:08;;;;;;;9.07;2.35;;;;;;;;;;6272458;22;20031;-76
2022/09/26 08:20:45;;;;;;;7.20;2.20;;;;;;;;;;6272530;22;20037;-76
2022/09/26 08:23:16;;;;;;;4.97;2.30;;;;;;;;;;6270592;22;20020;-76
2022/09/26 08:25:50;;;;;;;9.45;2.10;;;;;;;;;;6272051;22;20049;-75
2022/09/26 08:28:25;;;;;;;3.88;1.90;;;;;;;;;;6269665;22;20026;-75
2022/09/26 08:31:01;;;;;;;11.45;2.55;;;;;;;;;;6244320;22;20086;-75
2022/09/26 08:33:39;;;;;;;5.82;2.28;;;;;;;;;;6270719;22;20547;-75
2022/09/26 08:36:08;;;;;;;9.25;3.13;;;;;;;;;;6271955;22;20029;-75
2022/09/26 08:38:42;;;;;;;5.65;1.90;;;;;;;;;;6272007;22;20030;-76
2022/09/26 08:41:24;;;;;;;4.60;2.22;;;;;;;;;;6272385;22;20019;-75
2022/09/26 08:44:05;;;;;;;6.85;2.15;;;;;;;;;;6270754;22;20019;-76
2022/09/26 08:46:49;;;;;;;6.97;2.40;;;;;;;;;;6272149;22;20093;-75
2022/09/26 08:49:49;;;;;;;5.10;1.80;;;;;;;;;;6271638;22;20027;-76
2022/09/26 08:52:19;;;;;;;13.15;2.22;;;;;;;;;;6228318;22;20024;-76
2022/09/26 08:54:54;;;;;;;7.00;1.98;;;;;;;;;;6270707;22;20360;-75
2022/09/26 08:57:39;;;;;;;8.07;1.92;;;;;;;;;;6271875;22;20037;-76
2022/09/26 09:00:13;;;;;;;4.25;1.90;;;;;;;;;;6269295;22;20062;-76
2022/09/26 09:02:44;;;;;;;6.18;1.92;;;;;;;;;;6244100;22;20015;-76
2022/09/26 09:05:16;;;;;;;5.07;1.98;;;;;;;;;;6270484;22;20695;-76
2022/09/26 09:07:53;;;;;;;5.00;1.77;;;;;;;;;;6269983;22;20102;-76
2022/09/26 09:10:26;;;;;;;9.15;2.10;;;;;;;;;;6272164;22;20103;-76
2022/09/26 09:13:19;;;;;;;6.72;2.10;;;;;;;;;;6270748;22;20551;-76
2022/09/26 09:15:59;;;;;;;5.43;2.00;;;;;;;;;;6238591;23;20059;-76
2022/09/26 09:18:42;;;;;;;7.57;2.10;;;;;;;;;;6239889;23;20023;-77
2022/09/26 09:21:12;;;;;;;6.00;1.90;;;;;;;;;;6212883;23;20104;-76
2022/09/26 09:23:52;;;;;;;6.50;2.03;;;;;;;;;;6240718;23;20060;-76
2022/09/26 09:26:29;;;;;;;6.65;1.70;;;;;;;;;;6240191;23;20102;-76
2022/09/26 09:29:27;;;;;;;3.33;1.77;;;;;;;;;;6238045;23;20267;-76
2022/09/26 09:31:56;;;;;;;4.55;1.40;;;;;;;;;;6240413;23;20020;-77
2022/09/26 09:34:37;;;;;;;5.93;2.00;;;;;;;;;;6240225;23;20764;-76
2022/09/26 09:37:10;;;;;;;3.17;1.73;;;;;;;;;;6239072;23;20474;-76
2022/09/26 09:39:45;;;;;;;3.83;1.70;;;;;;;;;;6240409;23;20062;-76
2022/09/26 09:42:23;;;;;;;4.57;1.75;;;;;;;;;;6240771;23;20095;-76
2022/09/26 09:45:05;;;;;;;7.47;1.60;;;;;;;;;;6239930;23;20030;-76
2022/09/26 09:47:39;;;;;;;6.30;1.60;;;;;;;;;;6240108;23;20095;-77
2022/09/26 09:50:06;;;;;;;;;;;;;;;;;;6240519;23;20022;-76
2022/09/26 09:52:49;;;;;;;2.85;1.50;;;;;;;;;;6239373;23;19919;-76
2022/09/26 09:55:31;;;;;;;9.90;2.38;;;;;;;;;;6240410;23;20390;-76
2022/09/26 09:58:06;;;;;;;8.07;1.90;;;;;;;;;;6240327;23;20027;-77
2022/09/26 10:00:35;;;;;;;3.67;1.30;;;;;;;;;;6240560;23;20131;-76
2022/09/26 10:03:22;;;;;;;5.90;1.60;;;;;;;;;;6240780;23;20035;-77
2022/09/26 10:05:52;;;;;;;2.75;1.23;;;;;;;;;;6213921;23;20024;-77
2022/09/26 10:08:31;;;;;;;9.07;1.85;;;;;;;;;;6240529;23;20067;-76
2022/09/26 10:10:58;;;;;;;5.97;1.52;;;;;;;;;;6240795;23;20099;-76
2022/09/26 10:13:30;;;;;;;4.70;1.80;;;;;;;;;;6217800;22;20026;-76
2022/09/26 10:16:10;;;;;;;;;;;;;;;;;;6270661;22;20099;-76
2022/09/26 10:19:00;;;;;;;2.05;1.25;;;;;;;;;;6270981;22;19915;-76
2022/09/26 10:21:41;;;;;;;3.13;1.40;;;;;;;;;;6269568;22;20024;-76
2022/09/26 10:24:22;;;;;;;6.80;1.35;;;;;;;;;;6269498;22;20024;-76
2022/09/26 10:26:57;;;;;;;7.72;1.70;;;;;;;;;;6245037;22;20032;-76
2022/09/26 10:29:35;;;;;;;5.90;1.70;;;;;;;;;;6270213;22;20015;-76
2022/09/26 10:32:10;;;;;;;4.50;1.60;;;;;;;;;;6270561;22;20087;-77
2022/09/26 10:34:40;;;;;;;2.45;1.13;;;;;;;;;;6269878;22;20564;-76
2022/09/26 10:37:21;;;;;;;4.43;1.40;;;;;;;;;;6270112;22;20019;-76
2022/09/26 10:42:46;;;;;;;5.43;1.55;;;;;;;;;;6271364;22;20019;-76
2022/09/26 10:45:15;;;;;;;3.20;1.30;;;;;;;;;;6271444;22;20020;-76
2022/09/26 10:47:44;;;;;;;4.43;1.30;;;;;;;;;;6272907;22;20034;-76
2022/09/26 10:50:26;;;;;;;3.38;1.55;;;;;;;;;;6271372;22;20095;-76
2022/09/26 10:52:55;;;;;;;2.15;1.45;;;;;;;;;;6271954;22;20500;-77
2022/09/26 10:55:38;;;;;;;2.88;1.58;;;;;;;;;;6271762;22;20116;-76
2022/09/26 10:58:07;;;;;;;2.50;1.00;;;;;;;;;;6272604;22;20024;-76
2022/09/26 11:00:48;;;;;;;3.85;1.40;;;;;;;;;;6271612;22;20058;-76
2022/09/26 11:03:17;;;;;;;2.65;1.48;;;;;;;;;;6272262;22;20528;-77
2022/09/26 11:05:58;;;;;;;3.20;1.25;;;;;;;;;;6271243;22;20030;-76
2022/09/26 11:08:33;;;;;;;2.35;1.30;;;;;;;;;;6271888;22;20476;-75
2022/09/26 11:11:14;;;;;;;5.80;1.85;;;;;;;;;;6271485;22;20020;-76
2022/09/26 11:13:48;;;;;;;2.20;1.20;;;;;;;;;;6270378;22;20123;-75
2022/09/26 11:16:50;;;;;;;4.97;1.20;;;;;;;;;;6272238;22;20068;-77
2022/09/26 11:19:25;;;;;;;10.00;1.52;;;;;;;;;;6272548;22;20031;-77
2022/09/26 11:22:21;;;;;;;2.50;1.30;;;;;;;;;;6270880;22;20098;-75
2022/09/26 11:24:58;;;;;;;3.55;1.30;;;;;;;;;;6271906;22;20098;-75
2022/09/26 11:27:42;;;;;;;3.47;1.40;;;;;;;;;;6272496;22;20098;-75
2022/09/26 11:30:20;;;;;;;3.35;1.05;;;;;;;;;;6271832;22;20122;-76
2022/09/26 11:32:55;;;;;;;4.53;1.17;;;;;;;;;;6271748;22;20098;-76
2022/09/26 11:35:33;;;;;;;2.53;0.90;;;;;;;;;;6271145;22;20020;-76
2022/09/26 11:38:08;;;;;;;4.47;1.67;;;;;;;;;;6246336;22;20412;-76
2022/09/26 11:40:41;;;;;;;3.60;1.33;;;;;;;;;;6271112;22;20015;-76
2022/09/26 11:43:33;;;;;;;2.75;1.13;;;;;;;;;;6270868;22;20095;-77
2022/09/26 11:46:14;;;;;;;4.95;1.30;;;;;;;;;;6271624;22;20027;-76
2022/09/26 11:48:54;;;;;;;3.88;1.25;;;;;;;;;;6271617;22;20082;-76
2022/09/26 11:51:36;;;;;;;1.55;0.85;;;;;;;;;;6272848;22;20022;-76
2022/09/26 11:54:17;;;;;;;7.00;1.00;;;;;;;;;;6272185;22;20107;-77
2022/09/26 11:57:07;;;;;;;2.22;0.82;;;;;;;;;;6273181;22;20042;-76
2022/09/26 11:59:43;;;;;;;3.78;1.20;;;;;;;;;;6272866;22;20452;-76
2022/09/26 12:02:32;;;;;;;2.05;1.00;;;;;;;;;;6271887;22;20729;-77
2022/09/26 12:05:10;;;;;;;2.80;1.10;;;;;;;;;;6245911;22;20066;-77
2022/09/26 12:07:48;;;;;;;2.03;1.02;;;;;;;;;;6271376;22;20475;-76
2022/09/26 12:10:18;;;;;;;1.13;0.63;;;;;;;;;;6272920;22;20020;-77
2022/09/26 12:13:21;;;;;;;3.15;0.70;;;;;;;;;;6272458;22;20122;-77
2022/09/26 12:16:14;;;;;;;1.30;0.90;;;;;;;;;;6164148;22;20104;-76
2022/09/26 12:18:58;;;;;;;2.15;1.02;;;;;;;;;;6272569;22;20024;-77
2022/09/26 12:21:28;;;;;;;1.30;0.57;;;;;;;;;;6272396;22;20070;-76
2022/09/26 12:24:06;;;;;;;1.30;0.75;;;;;;;;;;6272593;22;20090;-77
2022/09/26 12:26:50;;;;;;;3.88;0.93;;;;;;;;;;6271272;22;20020;-77
2022/09/26 12:29:42;;;;;;;2.03;0.70;;;;;;;;;;6272206;22;20030;-78
2022/09/26 12:32:19;;;;;;;2.88;0.63;;;;;;;;;;6271825;22;20023;-77
2022/09/26 12:35:03;;;;;;;3.17;0.80;;;;;;;;;;6272456;22;20058;-77
2022/09/26 12:37:40;;;;;;;4.13;0.90;;;;;;;;;;6272367;22;20107;-76
2022/09/26 12:40:16;;;;;;;1.73;0.70;;;;;;;;;;6273136;22;20055;-77
2022/09/26 12:42:44;;;;;;;2.08;0.80;;;;;;;;;;6272947;22;20024;-77
2022/09/26 12:45:11;;;;;;;;;;;;;;;;;;6272643;22;20063;-77
2022/09/26 12:47:51;;;;;;;2.13;0.82;;;;;;;;;;6272823;22;19961;-77
2022/09/26 12:50:29;;;;;;;3.05;0.88;;;;;;;;;;6272621;22;20094;-77
2022/09/26 12:53:23;;;;;;;1.70;0.90;;;;;;;;;;6247333;22;20099;-77
2022/09/26 12:56:05;;;;;;;2.55;0.90;;;;;;;;;;6272470;22;20055;-77
2022/09/26 12:58:36;;;;;;;2.38;1.00;;;;;;;;;;6272017;22;20098;-77
2022/09/26 13:01:28;;;;;;;1.80;1.00;;;;;;;;;;6271304;22;20473;-77
2022/09/26 13:04:20;;;;;;;2.13;0.90;;;;;;;;;;6270715;22;20473;-77
2022/09/26 13:06:57;;;;;;;7.03;1.17;;;;;;;;;;6271731;22;20058;-77
2022/09/26 13:09:50;;;;;;;2.88;1.10;;;;;;;;;;6271326;22;20453;-77
2022/09/26 13:12:24;;;;;;;2.30;0.90;;;;;;;;;;6270656;22;20043;-78
2022/09/26 13:15:17;;;;;;;4.88;1.33;;;;;;;;;;6243533;22;20123;-77
2022/09/26 13:18:02;;;;;;;1.10;0.93;;;;;;;;;;6268838;22;20030;-77
2022/09/26 13:20:36;;;;;;;3.30;0.90;;;;;;;;;;6270774;22;20459;-77
2022/09/26 13:23:26;;;;;;;1.45;0.57;;;;;;;;;;6271702;22;20042;-77
2022/09/26 13:25:55;;;;;;;1.67;0.88;;;;;;;;;;6271215;22;20051;-77
2022/09/26 13:28:36;;;;;;;1.00;0.90;;;;;;;;;;6271519;22;20019;-77
2022/09/26 13:31:08;;;;;;;1.27;0.50;;;;;;;;;;6269735;22;20026;-76
2022/09/26 13:33:42;;;;;;;;;;;;;;;;;;6245163;22;20028;-75
2022/09/26 13:36:10;;;;;;;85.82;45.95;;;;;;;;;;6270783;22;19969;-76
2022/09/26 13:38:56;;;;;;;10.88;5.78;;;;;;;;;;6270735;22;20015;-75
2022/09/26 13:41:42;;;;;;;0.90;0.80;;;;;;;;;;6270095;22;20697;-75
2022/09/26 13:44:36;;;;;;;0.98;0.68;;;;;;;;;;6270826;22;20020;-76
2022/09/26 13:47:11;;;;;;;1.52;0.80;;;;;;;;;;6194562;22;20034;-76
2022/09/26 13:49:54;;;;;;;80.68;55.42;;;;;;;;;;6270374;22;20015;-76
2022/09/26 13:52:39;;;;;;;46.47;27.42;;;;;;;;;;6271009;22;20024;-76
2022/09/26 13:55:18;;;;;;;75.90;35.67;;;;;;;;;;6271157;22;20026;-75
2022/09/26 13:57:48;;;;;;;169.85;76.95;;;;;;;;;;6243088;22;20087;-76
2022/09/26 14:00:30;;;;;;;124.43;54.55;;;;;;;;;;6269593;22;20020;-76
2022/09/26 14:03:14;;;;;;;52.65;24.73;;;;;;;;;;6269982;22;20142;-76
2022/09/26 14:05:49;;;;;;;73.80;33.63;;;;;;;;;;6244758;22;20019;-76
2022/09/26 14:11:27;;;;;;;72.10;39.13;;;;;;;;;;6269977;22;20083;-75
2022/09/26 14:14:20;;;;;;;17.13;11.43;;;;;;;;;;6244181;22;20027;-76
2022/09/26 14:17:01;;;;;;;8.93;5.00;;;;;;;;;;6247575;22;20027;-75
2022/09/26 14:19:38;;;;;;;3.05;1.63;;;;;;;;;;6272495;22;20099;-76
2022/09/26 14:22:17;;;;;;;10.05;6.97;;;;;;;;;;6273029;22;20031;-75
2022/09/26 14:24:52;;;;;;;3.38;2.10;;;;;;;;;;6270852;22;20031;-75
2022/09/26 14:27:41;;;;;;;4.88;2.13;;;;;;;;;;6272109;22;20023;-75
2022/09/26 14:30:29;;;;;;;0.90;0.82;;;;;;;;;;6241771;22;20030;-75
2022/09/26 14:33:01;;;;;;;0.73;0.73;;;;;;;;;;6272211;22;20484;-75
2022/09/26 14:35:37;;;;;;;2.20;0.98;;;;;;;;;;6272406;22;20456;-75
2022/09/26 14:38:09;;;;;;;3.33;1.15;;;;;;;;;;6272719;22;20374;-75
2022/09/26 14:40:54;;;;;;;1.58;0.70;;;;;;;;;;6273283;22;20081;-75
2022/09/26 14:43:21;;;;;;;;;;;;;;;;;;6273067;22;20098;-75
2022/09/26 14:46:05;;;;;;;1.33;0.95;;;;;;;;;;6272495;22;19921;-75
2022/09/26 14:48:32;;;;;;;1.67;1.05;;;;;;;;;;6270465;22;20107;-76
2022/09/26 14:51:26;;;;;;;2.72;1.25;;;;;;;;;;6246737;22;20058;-75
2022/09/26 14:54:02;;;;;;;5.10;1.60;;;;;;;;;;6271894;22;20091;-75
2022/09/26 14:56:39;;;;;;;3.45;1.55;;;;;;;;;;6271979;22;20023;-75
2022/09/26 14:59:16;;;;;;;4.40;1.50;;;;;;;;;;6246563;22;20098;-75
2022/09/26 15:01:44;;;;;;;2.35;1.30;;;;;;;;;;6271392;22;20344;-75
2022/09/26 15:04:20;;;;;;;4.82;1.48;;;;;;;;;;6271992;22;20024;-75
2022/09/26 15:06:57;;;;;;;1.85;0.95;;;;;;;;;;6246783;22;20023;-76
2022/09/26 15:09:41;;;;;;;1.65;0.88;;;;;;;;;;6272657;22;20062;-76
2022/09/26 15:12:17;;;;;;;14.55;9.40;;;;;;;;;;6272565;22;20062;-75
2022/09/26 15:14:47;;;;;;;1.00;0.80;;;;;;;;;;6271670;22;20055;-76
2022/09/26 15:17:27;;;;;;;2.70;1.25;;;;;;;;;;6272159;22;20042;-76
2022/09/26 15:19:55;;;;;;;1.67;1.30;;;;;;;;;;6245326;22;20453;-75
2022/09/26 15:22:30;;;;;;;1.38;1.10;;;;;;;;;;6270649;22;20016;-75
2022/09/26 15:25:10;;;;;;;1.42;1.15;;;;;;;;;;6270874;22;20026;-75
2022/09/26 15:27:47;;;;;;;1.83;1.20;;;;;;;;;;6272221;22;20027;-75
2022/09/26 15:30:18;;;;;;;1.25;1.02;;;;;;;;;;6271590;22;20086;-75
2022/09/26 15:32:56;;;;;;;2.30;1.33;;;;;;;;;;6270634;22;20376;-75
2022/09/26 15:35:25;;;;;;;2.75;1.38;;;;;;;;;;6243374;22;20058;-75
2022/09/26 15:38:00;;;;;;;2.42;1.23;;;;;;;;;;6222581;22;20030;-75
2022/09/26 15:40:28;;;;;;;3.47;1.10;;;;;;;;;;6245053;22;20028;-75
2022/09/26 15:43:06;;;;;;;3.03;1.27;;;;;;;;;;6271514;22;20465;-75
2022/09/26 15:45:46;;;;;;;3.45;1.50;;;;;;;;;;6245296;22;20023;-75
2022/09/26 15:48:20;;;;;;;4.07;1.33;;;;;;;;;;6272303;22;20057;-75
2022/09/26 15:50:54;;;;;;;6.18;1.77;;;;;;;;;;6271560;22;20017;-75
2022/09/26 15:53:31;;;;;;;2.65;1.70;;;;;;;;;;6272962;22;20020;-75